Time;durP1;ratioP1;P1;durP2;ratioP2;P2;SDS_P1;SDS_P2;PMS_P1;PMS_P2;Temp;Humidity;BMP_temperature;BMP_pressure;BME280_temperature;BME280_humidity;BME280_pressure;Samples;Min_cycle;Max_cycle;Signal;HPM_P1;HPM_P2
2021/12/09 00:01:39;;;;;;;12.50;4.45;;;3.90;99.90;;;4.37;98.87;99174.03;5056974;28;20056;-79
2021/12/09 00:04:14;;;;;;;10.35;3.95;;;3.90;99.90;;;4.40;99.02;99178.88;5058310;28;20028;-81
2021/12/09 00:06:44;;;;;;;10.48;3.80;;;3.90;99.90;;;4.36;99.49;99164.97;5058435;28;20108;-82
2021/12/09 00:09:19;;;;;;;18.58;4.18;;;3.90;99.90;;;4.35;98.89;99168.06;5059290;28;20101;-79
2021/12/09 00:11:47;;;;;;;7.70;3.53;;;3.90;99.90;;;4.34;99.40;99167.25;5066192;28;20029;-79
2021/12/09 00:14:30;;;;;;;8.82;3.72;;;3.80;99.90;;;4.27;99.75;99166.28;5066479;28;20037;-80
2021/12/09 00:17:07;;;;;;;11.75;4.15;;;3.80;99.90;;;4.19;99.90;99159.72;5068233;28;20025;-80
2021/12/09 00:19:36;;;;;;;14.52;3.78;;;3.70;99.90;;;4.18;100.00;99166.41;5060114;28;20123;-82
2021/12/09 00:22:07;;;;;;;16.23;4.10;;;3.70;99.90;;;4.16;100.00;99157.69;5051006;28;20029;-78
2021/12/09 00:24:34;;;;;;;9.40;4.00;;;3.70;99.90;;;4.18;100.00;99166.41;5040777;28;20148;-81
2021/12/09 00:27:00;;;;;;;12.35;3.78;;;3.70;99.90;;;4.15;100.00;99159.63;5041844;28;20056;-82
2021/12/09 00:29:26;;;;;;;10.23;4.13;;;3.70;99.90;;;4.11;100.00;99169.00;5040962;28;20033;-82
2021/12/09 00:31:53;;;;;;;9.40;3.53;;;3.60;99.90;;;4.08;100.00;99167.72;5042827;28;20048;-81
2021/12/09 00:34:32;;;;;;;10.65;4.35;;;3.60;99.90;;;4.01;100.00;99163.97;5044166;28;20501;-79
2021/12/09 00:39:52;;;;;;;9.48;3.90;;;3.40;99.90;;;3.81;100.00;99170.44;5047227;28;20032;-80
2021/12/09 00:42:25;;;;;;;8.52;3.38;;;3.30;99.90;;;3.80;100.00;99174.34;5064189;28;20025;-79
2021/12/09 00:44:54;;;;;;;10.27;4.57;;;3.30;99.90;;;3.76;100.00;99171.50;5069500;28;20035;-82
2021/12/09 00:47:23;;;;;;;14.77;4.07;;;3.30;99.90;;;3.79;100.00;99175.53;5062894;28;20033;-80
2021/12/09 00:49:50;;;;;;;12.02;4.53;;;3.30;99.90;;;3.70;100.00;99172.88;5064182;28;20025;-80
2021/12/09 00:52:17;;;;;;;12.27;4.22;;;3.20;99.90;;;3.65;100.00;99173.13;5064708;28;20024;-82
2021/12/09 00:54:44;;;;;;;13.07;4.38;;;3.20;99.90;;;3.62;100.00;99173.84;5064258;28;20514;-81
2021/12/09 00:57:11;;;;;;;8.82;4.40;;;3.10;99.90;;;3.63;100.00;99164.38;5067364;28;20025;-80
2021/12/09 00:59:38;;;;;;;8.27;3.53;;;3.10;99.90;;;3.62;100.00;99173.84;5064505;28;20036;-82
2021/12/09 01:02:04;;;;;;;10.70;3.92;;;3.10;99.90;;;3.50;100.00;99177.41;5063202;28;20059;-82
2021/12/09 01:04:30;;;;;;;11.32;3.92;;;3.00;99.90;;;3.46;100.00;99179.25;5064435;28;20045;-81
2021/12/09 01:06:58;;;;;;;11.25;3.53;;;3.00;99.90;;;3.42;100.00;99178.34;5062752;28;20040;-79
2021/12/09 01:09:27;;;;;;;14.13;4.88;;;3.00;99.90;;;3.43;100.00;99179.97;5063379;28;20041;-81
2021/12/09 01:11:53;;;;;;;11.48;4.03;;;3.00;99.90;;;3.39;100.00;99176.28;5061830;28;20039;-82
2021/12/09 01:14:19;;;;;;;8.38;3.75;;;2.90;99.90;;;3.30;100.00;99170.06;5062871;28;20053;-81
2021/12/09 01:16:48;;;;;;;10.38;4.28;;;2.90;99.90;;;3.22;100.00;99184.78;5061292;28;20037;-80
2021/12/09 01:19:21;;;;;;;9.57;4.20;;;2.80;99.90;;;3.21;100.00;99176.84;5063343;28;20099;-79
2021/12/09 01:21:48;;;;;;;11.20;4.38;;;2.80;99.90;;;3.16;100.00;99181.44;5055164;28;20040;-80
2021/12/09 01:24:17;;;;;;;9.25;5.00;;;2.70;99.90;;;3.15;100.00;99192.81;5043243;28;20499;-79
2021/12/09 01:26:45;;;;;;;12.35;4.65;;;2.70;99.90;;;3.17;100.00;99202.38;5041063;28;20030;-79
2021/12/09 01:29:18;;;;;;;13.52;4.40;;;2.70;99.90;;;3.22;100.00;99192.25;5046350;28;20029;-79
2021/12/09 01:31:53;;;;;;;12.10;5.13;;;2.90;99.90;;;3.34;100.00;99198.56;5043491;28;20057;-80
2021/12/09 01:34:21;;;;;;;12.18;3.83;;;2.90;99.90;;;3.43;100.00;99201.22;5040060;28;20049;-82
2021/12/09 01:36:49;;;;;;;12.88;4.75;;;3.00;99.90;;;3.47;100.00;99205.69;5039999;28;20028;-79
2021/12/09 01:39:18;;;;;;;10.57;3.80;;;3.00;99.90;;;3.42;100.00;99211.44;5041175;28;20439;-82
2021/12/09 01:41:44;;;;;;;8.80;3.78;;;2.90;99.90;;;3.35;100.00;99208.47;5040995;28;20549;-82
2021/12/09 01:44:10;;;;;;;10.85;3.95;;;2.90;99.90;;;3.34;100.00;99212.38;5040765;28;20033;-83
2021/12/09 01:46:36;;;;;;;15.10;4.55;;;2.90;99.90;;;3.29;100.00;99207.09;5041290;28;20040;-82
2021/12/09 01:49:03;;;;;;;15.65;4.50;;;2.80;99.90;;;3.22;100.00;99217.06;5041181;28;20079;-81
2021/12/09 01:51:29;;;;;;;11.88;4.07;;;2.80;99.90;;;3.22;100.00;99219.84;5039955;28;20116;-82
2021/12/09 01:53:55;;;;;;;9.07;4.38;;;2.80;99.90;;;3.23;100.00;99225.03;5041784;28;20029;-81
2021/12/09 01:56:29;;;;;;;13.63;4.60;;;2.80;99.90;;;3.21;100.00;99221.00;5040596;28;20021;-81
2021/12/09 01:59:02;;;;;;;14.15;4.28;;;2.80;99.90;;;3.17;100.00;99224.44;5040420;28;20377;-81
2021/12/09 02:01:31;;;;;;;11.60;3.38;;;2.80;99.90;;;3.30;100.00;99225.25;5041911;28;20128;-80
2021/12/09 02:03:59;;;;;;;12.38;4.22;;;2.90;99.90;;;3.33;100.00;99227.34;5042500;28;20052;-81
2021/12/09 02:06:30;;;;;;;9.75;4.25;;;2.90;99.90;;;3.32;100.00;99214.66;5041808;28;20026;-82
2021/12/09 02:09:03;;;;;;;10.38;4.07;;;2.90;99.90;;;3.40;100.00;99224.00;5040561;28;20481;-80
2021/12/09 02:11:29;;;;;;;13.85;4.40;;;3.00;99.90;;;3.37;100.00;99228.22;5041745;28;20017;-80
2021/12/09 02:13:57;;;;;;;9.50;4.60;;;2.90;99.90;;;3.41;100.00;99220.88;5041791;28;20512;-80
2021/12/09 02:16:26;;;;;;;15.65;3.97;;;3.00;99.90;;;3.49;100.00;99225.50;5041577;28;20037;-82
2021/12/09 02:18:56;;;;;;;21.73;4.95;;;3.00;99.90;;;3.53;100.00;99214.56;5040785;28;20044;-82
2021/12/09 02:21:30;;;;;;;7.65;3.97;;;3.10;99.90;;;3.55;100.00;99221.34;5046554;28;20052;-82
2021/12/09 02:24:07;;;;;;;13.75;3.83;;;3.10;99.90;;;3.54;100.00;99222.47;5061725;28;20032;-80
2021/12/09 02:26:43;;;;;;;11.10;3.92;;;3.10;99.90;;;3.47;100.00;99216.72;5061842;28;20078;-80
2021/12/09 02:29:13;;;;;;;10.20;4.07;;;3.00;99.90;;;3.46;100.00;99226.19;5060793;28;20040;-83
2021/12/09 02:31:42;;;;;;;9.32;3.92;;;3.00;99.90;;;3.40;100.00;99224.81;5061717;28;20033;-82
2021/12/09 02:34:10;;;;;;;11.18;3.65;;;3.00;99.90;;;3.38;100.00;99221.56;5060745;28;20086;-80
2021/12/09 02:36:42;;;;;;;10.30;3.90;;;3.00;99.90;;;3.40;100.00;99219.28;5060284;28;20108;-80
2021/12/09 02:39:14;;;;;;;8.70;3.95;;;3.00;99.90;;;3.38;100.00;99218.81;5059144;28;20025;-82
2021/12/09 02:41:42;;;;;;;8.68;3.72;;;2.90;99.90;;;3.27;100.00;99214.91;5059318;28;20337;-80
2021/12/09 02:44:17;;;;;;;6.55;3.25;;;2.80;99.90;;;3.21;100.00;99207.22;5059908;28;20341;-80
2021/12/09 02:46:55;;;;;;;10.82;4.05;;;2.80;99.90;;;3.13;100.00;99223.50;5059173;28;20029;-80
2021/12/09 02:49:28;;;;;;;13.27;4.47;;;2.70;99.90;;;3.13;100.00;99219.94;5059818;28;20037;-81
2021/12/09 02:51:58;;;;;;;13.45;5.00;;;2.80;99.90;;;3.18;100.00;99223.28;5058614;28;20037;-82
2021/12/09 02:54:26;;;;;;;11.95;4.68;;;2.80;99.90;;;3.13;100.00;99214.44;5058610;28;20043;-79
2021/12/09 02:57:01;;;;;;;17.27;4.80;;;2.80;99.90;;;3.15;100.00;99214.88;5059547;28;20028;-81
2021/12/09 03:01:57;;;;;;;15.48;4.05;;;2.80;99.90;;;3.25;100.00;99208.09;5022292;28;20042;-84
2021/12/09 03:04:58;;;;;;;6.57;3.40;;;2.80;99.90;;;3.20;100.00;99211.91;5034907;28;20030;-82
2021/12/09 03:07:38;;;;;;;9.45;4.05;;;2.80;99.90;;;3.13;100.00;99217.19;5022395;28;20362;-84
2021/12/09 03:10:21;;;;;;;14.07;4.10;;;2.70;99.90;;;3.01;100.00;99211.66;5022463;28;20374;-82
2021/12/09 03:12:53;;;;;;;10.40;4.50;;;2.60;99.90;;;3.00;100.00;99213.63;5021953;28;20401;-86
2021/12/09 03:15:22;;;;;;;14.45;3.83;;;2.60;99.90;;;3.02;100.00;99202.22;5015795;28;20374;-84
2021/12/09 03:17:49;;;;;;;17.55;6.07;;;2.60;99.90;;;3.04;100.00;99211.78;5016058;28;20037;-85
2021/12/09 03:20:19;;;;;;;10.23;3.97;;;2.60;99.90;;;3.01;100.00;99209.72;5032636;28;20029;-83
2021/12/09 03:22:49;;;;;;;9.38;3.80;;;2.60;99.90;;;2.95;100.00;99207.53;5016224;28;20508;-82
2021/12/09 03:25:19;;;;;;;14.90;3.67;;;2.50;99.90;;;2.90;100.00;99216.00;5033563;28;20041;-84
2021/12/09 03:27:47;;;;;;;11.45;4.20;;;2.50;99.90;;;2.89;100.00;99217.16;5016476;28;20401;-87
2021/12/09 03:30:19;;;;;;;8.05;3.95;;;2.50;99.90;;;2.88;100.00;99213.59;5033336;28;20140;-85
2021/12/09 03:32:45;;;;;;;10.32;3.47;;;2.50;99.90;;;2.82;100.00;99214.16;5033466;28;20029;-84
2021/12/09 03:35:13;;;;;;;11.02;4.53;;;2.40;99.90;;;2.80;100.00;99220.00;5017150;28;20048;-86
2021/12/09 03:37:42;;;;;;;9.88;3.78;;;2.40;99.90;;;2.79;100.00;99223.13;5016351;28;20034;-87
2021/12/09 03:40:11;;;;;;;12.20;4.32;;;2.40;99.90;;;2.77;100.00;99217.94;5018709;28;20084;-86
2021/12/09 03:42:37;;;;;;;12.80;4.65;;;2.40;99.90;;;2.79;100.00;99214.84;5016100;28;20064;-85
2021/12/09 03:45:05;;;;;;;13.25;3.60;;;2.40;99.90;;;2.81;100.00;99212.53;5016324;28;20033;-86
2021/12/09 03:47:32;;;;;;;10.25;3.90;;;2.40;99.90;;;2.81;100.00;99207.03;5032785;28;20081;-83
2021/12/09 03:50:01;;;;;;;7.95;3.67;;;2.40;99.90;;;2.79;100.00;99212.09;5016100;28;20120;-85
2021/12/09 03:52:28;;;;;;;10.38;3.70;;;2.40;99.90;;;2.76;100.00;99210.78;5017041;28;20083;-83
2021/12/09 03:54:55;;;;;;;8.63;4.18;;;2.40;99.90;;;2.70;100.00;99212.16;5017124;28;20037;-87
2021/12/09 03:57:23;;;;;;;11.82;4.18;;;2.20;99.90;;;2.70;100.00;99214.13;5018995;28;20034;-83
2021/12/09 03:59:49;;;;;;;12.70;4.57;;;2.20;99.90;;;2.67;100.00;99212.84;5029580;28;20045;-86
2021/12/09 04:02:17;;;;;;;9.88;3.67;;;2.30;99.90;;;2.67;100.00;99208.13;5036882;28;20404;-85
2021/12/09 04:04:44;;;;;;;13.55;3.83;;;2.20;99.90;;;2.63;100.00;99204.44;5020829;28;20029;-84
2021/12/09 04:07:11;;;;;;;10.27;4.15;;;2.20;99.90;;;2.63;100.00;99209.97;5021597;28;20048;-84
2021/12/09 04:09:39;;;;;;;7.32;4.57;;;2.20;99.90;;;2.56;100.00;99206.16;5020986;28;20075;-85
2021/12/09 04:12:07;;;;;;;9.70;3.92;;;2.20;99.90;;;2.52;100.00;99203.28;5021075;28;20038;-87
2021/12/09 04:14:33;;;;;;;14.38;4.72;;;2.10;99.90;;;2.43;100.00;99210.03;5022741;28;20029;-86
2021/12/09 04:17:06;;;;;;;11.82;4.70;;;2.00;99.90;;;2.43;100.00;99210.03;5027293;28;20032;-85
2021/12/09 04:19:32;;;;;;;14.75;4.00;;;2.00;99.90;;;2.30;100.00;99208.38;5028500;28;20037;-85
2021/12/09 04:22:01;;;;;;;9.45;3.80;;;1.90;99.90;;;2.28;100.00;99216.16;5031414;28;20208;-88
2021/12/09 04:24:27;;;;;;;13.27;5.05;;;1.90;99.90;;;2.28;100.00;99216.94;5022555;28;20151;-86
2021/12/09 04:26:54;;;;;;;18.05;5.53;;;1.90;99.90;;;2.28;100.00;99221.69;5022981;28;20281;-86
2021/12/09 04:29:21;;;;;;;12.15;4.22;;;1.90;99.90;;;2.31;100.00;99218.25;5021767;28;20037;-87
2021/12/09 04:31:51;;;;;;;12.68;4.05;;;1.90;99.90;;;2.34;100.00;99225.84;5025311;28;20048;-86
2021/12/09 04:34:19;;;;;;;12.75;4.68;;;1.90;99.90;;;2.28;100.00;99221.69;5033105;28;20044;-89
2021/12/09 04:36:45;;;;;;;10.48;4.68;;;1.90;99.90;;;2.27;100.00;99225.56;5053851;28;20029;-89
2021/12/09 04:39:11;;;;;;;11.00;4.45;;;1.80;99.90;;;2.22;100.00;99229.31;5037860;28;20034;-87
2021/12/09 04:41:37;;;;;;;10.52;4.68;;;1.80;99.90;;;2.23;100.00;99224.63;5038282;28;20036;-89
2021/12/09 04:44:06;;;;;;;12.18;4.65;;;1.80;99.90;;;2.24;100.00;99229.81;5039091;28;20049;-90
2021/12/09 04:46:33;;;;;;;12.02;4.70;;;1.80;99.90;;;2.19;100.00;99226.44;5039211;28;20101;-90
2021/12/09 04:48:59;;;;;;;15.95;4.40;;;1.80;99.90;;;2.19;100.00;99238.25;5039215;28;20089;-91
2021/12/09 04:51:26;;;;;;;13.98;4.32;;;1.80;99.90;;;2.21;100.00;99230.50;5039553;28;20036;-93
2021/12/09 04:53:53;;;;;;;12.38;4.63;;;1.80;99.90;;;2.22;100.00;99229.31;5055784;28;20037;-91
2021/12/09 04:56:19;;;;;;;11.60;4.63;;;1.70;99.90;;;2.20;100.00;99228.88;5055738;28;20032;-89
2021/12/09 04:58:45;;;;;;;15.95;5.13;;;1.70;99.90;;;2.24;100.00;99234.50;5039412;28;20031;-90
2021/12/09 05:01:11;;;;;;;10.55;4.93;;;1.70;99.90;;;2.18;100.00;99233.91;5058434;28;20052;-89
2021/12/09 05:03:37;;;;;;;14.80;5.32;;;1.70;99.90;;;2.11;100.00;99237.22;5042756;28;20057;-90
2021/12/09 05:06:04;;;;;;;13.55;4.38;;;1.70;99.90;;;2.14;100.00;99246.75;5057563;28;20037;-86
2021/12/09 05:08:32;;;;;;;11.45;5.10;;;1.70;99.90;;;2.13;100.00;99239.63;5043244;28;20064;-86
2021/12/09 05:11:14;;;;;;;16.13;5.07;;;1.80;99.90;;;2.11;100.00;99233.66;5026244;28;20031;-88
2021/12/09 05:13:41;;;;;;;9.05;5.00;;;1.70;99.90;;;2.12;100.00;99240.75;5040452;28;20037;-86
2021/12/09 05:16:10;;;;;;;13.50;5.05;;;1.70;99.90;;;2.05;100.00;99232.25;5023849;28;20186;-86
2021/12/09 05:18:40;;;;;;;13.20;4.70;;;1.70;99.90;;;2.08;100.00;99232.38;5023985;28;20034;-86
2021/12/09 05:21:11;;;;;;;14.55;4.70;;;1.70;99.90;;;2.07;100.00;99243.72;5025135;28;20098;-85
2021/12/09 05:23:36;;;;;;;15.02;4.68;;;1.70;99.90;;;2.02;100.00;99254.94;5023998;28;20037;-87
2021/12/09 05:26:04;;;;;;;13.73;5.10;;;1.60;99.90;;;1.97;100.00;99255.13;5025157;28;20044;-88
2021/12/09 05:28:34;;;;;;;20.77;5.55;;;1.60;99.90;;;1.99;100.00;99256.41;5023310;28;20397;-86
2021/12/09 05:33:51;;;;;;;11.98;5.30;;;1.60;99.90;;;2.05;100.00;99266.09;5040427;28;20056;-86
2021/12/09 05:36:18;;;;;;;12.13;4.90;;;1.70;99.90;;;2.04;100.00;99267.22;5022940;28;20409;-86
2021/12/09 05:38:44;;;;;;;13.68;5.97;;;1.60;99.90;;;2.02;100.00;99269.50;5022936;28;20033;-87
2021/12/09 05:41:11;;;;;;;16.20;4.88;;;1.60;99.90;;;2.01;100.00;99276.16;5023012;28;20034;-85
2021/12/09 05:43:40;;;;;;;12.98;4.35;;;1.60;99.90;;;1.99;100.00;99277.66;5040204;28;20029;-85
2021/12/09 05:46:06;;;;;;;13.60;4.88;;;1.60;99.90;;;2.00;100.00;99280.03;5022118;28;20434;-87
2021/12/09 05:48:35;;;;;;;10.88;4.95;;;1.60;99.90;;;2.02;100.00;99285.22;5021382;28;20056;-86
2021/12/09 05:51:01;;;;;;;14.13;5.22;;;1.60;99.90;;;1.97;100.00;99282.66;5022596;28;20109;-85
2021/12/09 05:53:27;;;;;;;9.70;4.40;;;1.50;99.90;;;1.99;100.00;99283.16;5039285;28;20076;-85
2021/12/09 05:55:53;;;;;;;14.52;5.70;;;1.50;99.90;;;2.00;100.00;99282.81;5021096;28;20400;-86
2021/12/09 05:58:23;;;;;;;13.95;5.57;;;1.50;99.90;;;2.00;100.00;99288.31;5037935;28;20083;-87
2021/12/09 06:00:53;;;;;;;13.20;5.50;;;1.50;99.90;;;2.04;100.00;99282.94;5039979;28;20101;-83
2021/12/09 06:03:22;;;;;;;12.70;4.82;;;1.60;99.90;;;2.11;100.00;99286.78;5022215;28;20128;-85
2021/12/09 06:05:51;;;;;;;11.77;5.35;;;1.60;99.90;;;2.13;100.00;99292.75;5024218;28;20087;-86
2021/12/09 06:08:20;;;;;;;13.45;5.25;;;1.60;99.90;;;2.11;100.00;99292.28;5023130;28;20038;-83
2021/12/09 06:10:47;;;;;;;14.55;5.13;;;1.60;99.90;;;2.11;100.00;99305.25;5041233;28;20044;-87
2021/12/09 06:13:13;;;;;;;17.98;5.57;;;1.60;99.90;;;2.01;100.00;99295.44;5022272;28;20124;-85
2021/12/09 06:15:40;;;;;;;11.68;4.82;;;1.60;99.90;;;2.00;100.00;99299.31;5023508;28;20386;-87
2021/12/09 06:18:06;;;;;;;15.25;5.28;;;1.60;99.90;;;2.01;100.00;99297.38;5022619;28;20041;-84
2021/12/09 06:20:33;;;;;;;9.05;4.93;;;1.50;99.90;;;2.01;100.00;99295.44;5023031;28;20034;-86
2021/12/09 06:22:58;;;;;;;19.48;5.00;;;1.50;99.90;;;1.92;100.00;99299.38;5039376;28;20033;-85
2021/12/09 06:25:24;;;;;;;11.02;5.05;;;1.50;99.90;;;2.01;100.00;99305.63;5022416;28;20029;-87
2021/12/09 06:27:54;;;;;;;19.90;5.13;;;1.60;99.90;;;1.98;100.00;99298.06;5023388;28;20128;-83
2021/12/09 06:30:22;;;;;;;13.32;4.78;;;1.60;99.90;;;1.96;100.00;99303.06;5021494;28;20117;-85
2021/12/09 06:32:48;;;;;;;17.00;5.50;;;1.60;99.90;;;1.97;100.00;99300.00;5021953;28;20037;-85
2021/12/09 06:35:15;;;;;;;15.63;5.30;;;1.50;99.90;;;2.01;100.00;99298.19;5022087;28;20029;-85
2021/12/09 06:37:44;;;;;;;15.32;4.25;;;1.60;99.90;;;1.99;100.00;99297.69;5021608;28;20397;-85
2021/12/09 06:40:16;;;;;;;12.23;5.13;;;1.60;99.90;;;1.96;100.00;99301.13;5039700;28;20033;-84
2021/12/09 06:42:44;;;;;;;10.10;4.85;;;1.60;99.90;;;1.95;100.00;99298.72;5021500;28;20459;-87
2021/12/09 06:45:14;;;;;;;14.02;4.90;;;1.60;99.90;;;1.97;100.00;99297.25;5040212;28;20068;-85
2021/12/09 06:47:41;;;;;;;13.75;5.03;;;1.50;99.90;;;1.94;100.00;99289.66;5040469;28;20056;-85
2021/12/09 06:50:12;;;;;;;11.52;4.50;;;1.60;99.90;;;1.96;100.00;99289.28;5023016;28;20029;-87
2021/12/09 06:52:39;;;;;;;13.88;5.03;;;1.50;99.90;;;1.92;100.00;99299.38;5043338;28;20025;-87
2021/12/09 06:55:18;;;;;;;13.15;4.30;;;1.50;99.90;;;1.92;100.00;99297.44;5033363;28;20026;-86
2021/12/09 06:57:46;;;;;;;18.70;4.70;;;1.50;99.90;;;1.92;100.00;99305.72;5022607;28;20033;-83
2021/12/09 07:00:22;;;;;;;22.70;5.63;;;1.50;99.90;;;2.00;100.00;99306.78;5024016;28;20132;-87
2021/12/09 07:02:49;;;;;;;11.40;5.47;;;1.60;99.90;;;2.09;100.00;99307.50;5024165;28;20059;-85
2021/12/09 07:05:21;;;;;;;16.15;4.55;;;1.70;99.90;;;2.18;100.00;99310.22;5026492;28;20033;-84
2021/12/09 07:07:48;;;;;;;14.43;4.57;;;1.80;99.90;;;2.20;100.00;99306.00;5024044;28;20037;-84
2021/12/09 07:10:21;;;;;;;11.18;4.32;;;1.80;99.90;;;2.26;100.00;99306.59;5023029;28;20405;-84
2021/12/09 07:12:48;;;;;;;18.65;4.82;;;1.80;99.90;;;2.25;100.00;99314.03;5023580;28;20031;-82
2021/12/09 07:15:16;;;;;;;14.15;4.70;;;1.90;99.90;;;2.29;100.00;99309.47;5023595;28;20029;-86
2021/12/09 07:17:44;;;;;;;11.48;4.68;;;1.90;99.90;;;2.30;100.00;99315.81;5022400;28;20033;-86
2021/12/09 07:20:17;;;;;;;15.07;4.03;;;1.90;99.90;;;2.27;100.00;99314.53;5021995;28;20045;-86
2021/12/09 07:22:48;;;;;;;16.80;4.95;;;1.90;99.90;;;2.33;100.00;99315.13;5039810;28;20037;-85
2021/12/09 07:25:16;;;;;;;9.23;3.90;;;1.90;99.90;;;2.34;100.00;99317.56;5039139;28;20033;-84
2021/12/09 07:27:42;;;;;;;11.38;4.18;;;1.90;99.90;;;2.36;100.00;99311.72;5022704;28;20030;-85
2021/12/09 07:30:13;;;;;;;13.38;4.78;;;2.00;99.90;;;2.38;100.00;99318.50;5040825;28;20085;-86
2021/12/09 07:32:40;;;;;;;11.18;4.05;;;2.00;99.90;;;2.36;100.00;99322.72;5023361;28;20040;-86
2021/12/09 07:35:09;;;;;;;11.57;4.75;;;2.00;99.90;;;2.35;100.00;99332.94;5041602;28;20035;-84
2021/12/09 07:37:38;;;;;;;13.82;4.25;;;1.90;99.90;;;2.34;100.00;99325.84;5021231;28;20029;-82
2021/12/09 07:40:14;;;;;;;14.65;4.40;;;1.90;99.90;;;2.39;100.00;99331.13;5022163;28;20448;-83
2021/12/09 07:42:41;;;;;;;18.70;4.78;;;2.00;99.90;;;2.40;100.00;99332.75;5021486;28;20531;-85
2021/12/09 07:45:10;;;;;;;10.55;3.65;;;2.00;99.90;;;2.48;100.00;99331.88;5038468;28;20037;-83
2021/12/09 07:47:37;;;;;;;11.63;4.35;;;2.10;99.90;;;2.46;100.00;99330.59;5021996;28;20041;-89
2021/12/09 07:50:08;;;;;;;13.77;4.85;;;2.10;99.90;;;2.53;100.00;99333.63;5022514;28;20036;-86
2021/12/09 07:52:38;;;;;;;13.18;4.43;;;2.20;99.90;;;2.56;100.00;99332.94;5022157;28;20033;-84
2021/12/09 07:55:09;;;;;;;12.77;4.65;;;2.10;99.90;;;2.53;100.00;99331.69;5040936;28;20025;-87
2021/12/09 07:57:36;;;;;;;12.73;5.05;;;2.20;99.90;;;2.56;100.00;99330.19;5023670;28;20049;-85
2021/12/09 08:00:19;;;;;;;13.57;5.18;;;2.30;99.90;;;2.65;100.00;99339.19;5041270;28;20538;-83
2021/12/09 08:02:51;;;;;;;10.25;4.72;;;2.20;99.90;;;2.78;100.00;99335.34;5022624;28;20358;-87
2021/12/09 08:05:19;;;;;;;12.85;4.60;;;2.30;99.90;;;2.84;100.00;99336.75;5023951;28;20037;-87
2021/12/09 08:07:47;;;;;;;14.05;4.40;;;2.30;99.90;;;2.83;100.00;99345.34;5040820;28;20112;-86
2021/12/09 08:10:17;;;;;;;13.13;4.10;;;2.40;99.90;;;2.78;100.00;99338.09;5023559;28;20446;-86
2021/12/09 08:12:44;;;;;;;14.02;4.03;;;2.40;99.90;;;2.78;100.00;99337.28;5022131;28;20124;-84
2021/12/09 08:15:13;;;;;;;10.90;4.18;;;2.40;99.90;;;2.88;100.00;99353.41;5022628;28;20103;-85
2021/12/09 08:20:16;;;;;;;15.98;4.05;;;2.40;99.90;;;2.95;100.00;99342.66;5040394;28;20029;-87
2021/12/09 08:22:47;;;;;;;10.02;4.53;;;2.50;99.90;;;2.98;100.00;99348.31;5022222;28;20037;-86
2021/12/09 08:25:14;;;;;;;12.30;4.32;;;2.60;99.90;;;2.93;100.00;99345.75;5022453;28;20057;-85
2021/12/09 08:27:47;;;;;;;9.52;4.35;;;2.60;99.90;;;3.01;100.00;99355.09;5039079;28;20034;-86
2021/12/09 08:30:23;;;;;;;15.73;4.53;;;2.60;99.90;;;3.21;100.00;99351.47;5038275;28;20469;-86
2021/12/09 08:32:50;;;;;;;15.77;5.43;;;2.70;99.90;;;3.43;100.00;99361.31;5021762;28;20025;-85
2021/12/09 08:35:17;;;;;;;9.88;4.30;;;2.90;99.90;;;3.52;100.00;99357.28;5022697;28;20084;-87
2021/12/09 08:37:51;;;;;;;11.00;4.35;;;3.00;99.90;;;3.60;100.00;99367.41;5025997;28;20033;-85
2021/12/09 08:40:20;;;;;;;11.15;4.28;;;3.00;99.90;;;3.75;100.00;99368.72;5044412;28;20037;-85
2021/12/09 08:42:49;;;;;;;14.80;3.85;;;3.10;99.90;;;3.85;100.00;99364.69;5026121;28;20489;-87
2021/12/09 08:45:17;;;;;;;10.40;4.45;;;3.30;99.90;;;4.01;100.00;99363.66;5026096;28;20540;-84
2021/12/09 08:47:45;;;;;;;7.25;3.42;;;3.40;99.90;;;4.14;100.00;99362.47;5043580;28;20029;-85
2021/12/09 08:50:19;;;;;;;14.50;4.50;;;3.50;99.90;;;4.35;100.00;99367.06;5025950;28;20030;-84
2021/12/09 08:52:52;;;;;;;15.82;3.75;;;3.70;99.90;;;4.59;100.00;99370.59;5025799;28;20485;-88
2021/12/09 08:55:23;;;;;;;12.15;4.00;;;3.90;99.90;;;4.65;100.00;99360.94;5026101;28;20034;-84
2021/12/09 08:57:50;;;;;;;12.52;3.83;;;4.00;99.90;;;4.76;99.82;99369.50;5026658;28;20029;-86
2021/12/09 09:00:18;;;;;;;16.40;3.88;;;4.20;99.90;;;4.91;99.01;99371.56;5026382;28;20033;-86
2021/12/09 09:02:50;;;;;;;12.50;3.92;;;4.30;99.90;;;5.02;97.91;99377.38;5026056;28;20029;-86
2021/12/09 09:05:16;;;;;;;10.73;3.53;;;4.30;99.90;;;5.16;96.63;99377.78;5024489;28;20025;-89
2021/12/09 09:07:49;;;;;;;15.02;4.05;;;4.50;99.90;;;5.34;96.67;99387.38;5026227;28;20041;-85
2021/12/09 09:10:22;;;;;;;14.05;3.58;;;4.60;99.90;;;5.43;95.58;99388.03;5032044;28;20033;-85
2021/12/09 09:12:50;;;;;;;12.15;3.20;;;4.70;99.90;;;5.46;95.67;99392.84;5043307;28;20033;-85
2021/12/09 09:15:20;;;;;;;13.05;3.53;;;4.80;99.90;;;5.49;95.08;99389.38;5027129;28;20026;-85
2021/12/09 09:17:48;;;;;;;8.48;3.83;;;4.80;99.90;;;5.47;95.83;99396.44;5027379;28;20036;-86
2021/12/09 09:20:20;;;;;;;7.68;3.45;;;4.80;99.90;;;5.68;93.94;99394.25;5042758;28;20539;-85
2021/12/09 09:22:46;;;;;;;8.55;2.80;;;5.00;99.90;;;5.73;93.25;99394.78;5026849;28;20033;-86
2021/12/09 09:25:19;;;;;;;9.35;3.65;;;5.00;99.90;;;5.83;93.22;99405.34;5026423;28;20059;-86
2021/12/09 09:27:48;;;;;;;12.45;3.10;;;5.20;99.90;;;6.02;92.53;99401.88;5027607;28;20541;-85
2021/12/09 09:30:18;;;;;;;12.48;3.88;;;5.20;99.90;;;6.13;91.86;99399.38;5026335;28;20577;-87
2021/12/09 09:32:50;;;;;;;15.60;3.75;;;5.40;99.90;;;5.74;92.41;99403.91;5044247;28;20040;-85
2021/12/09 09:35:18;;;;;;;12.00;3.17;;;5.30;99.90;;;5.68;92.56;99399.78;5044598;28;20080;-85
2021/12/09 09:37:46;;;;;;;9.57;3.35;;;5.10;99.90;;;5.32;94.34;99401.59;5043793;28;20037;-86
2021/12/09 09:40:27;;;;;;;9.65;3.65;;;4.90;99.90;;;5.44;95.79;99397.13;5025845;28;20036;-86
2021/12/09 09:43:03;;;;;;;16.65;3.80;;;5.00;99.90;;;5.81;93.77;99407.66;5024880;28;20520;-83
2021/12/09 09:45:31;;;;;;;;;;;5.10;99.90;;;5.83;93.20;99401.75;5041786;28;20029;-87
2021/12/09 09:47:58;;;;;;;9.48;3.25;;;5.30;99.90;;;5.76;92.90;99398.78;5041217;28;19913;-86
2021/12/09 09:50:25;;;;;;;13.40;3.33;;;5.40;99.90;;;6.27;91.83;99396.94;5040488;28;20029;-87
2021/12/09 09:52:53;;;;;;;12.02;3.97;;;5.50;99.90;;;6.35;91.81;99393.19;5023857;28;20028;-85
2021/12/09 09:55:21;;;;;;;10.07;4.03;;;5.70;99.90;;;6.30;90.29;99401.75;5024401;28;20037;-86
2021/12/09 09:57:51;;;;;;;9.05;3.15;;;5.70;99.90;;;6.45;89.42;99395.41;5042348;28;20021;-86
2021/12/09 10:00:21;;;;;;;9.57;2.85;;;5.80;99.90;;;6.69;88.29;99389.59;5040929;28;20038;-85
2021/12/09 10:02:53;;;;;;;6.70;3.03;;;5.90;99.90;;;6.73;88.03;99400.78;5024794;28;20124;-85
2021/12/09 10:05:32;;;;;;;12.52;3.03;;;6.00;99.90;;;6.80;87.45;99398.19;5026047;28;20397;-87
2021/12/09 10:07:58;;;;;;;10.50;3.50;;;6.00;99.90;;;6.71;87.08;99398.38;5026952;28;20398;-85
2021/12/09 10:10:24;;;;;;;11.70;3.80;;;6.10;99.90;;;6.49;87.43;99404.59;5028164;28;20025;-86
2021/12/09 10:13:06;;;;;;;18.20;3.20;;;5.90;99.90;;;6.21;89.59;99401.97;5028683;28;20164;-86
2021/12/09 10:15:51;;;;;;;6.55;2.65;;;5.70;99.90;;;6.18;90.58;99391.59;5045484;28;20080;-84
2021/12/09 10:18:38;;;;;;;6.50;2.70;;;5.60;99.90;;;6.24;89.93;99404.00;5028401;28;20490;-86
2021/12/09 10:21:11;;;;;;;11.25;3.53;;;5.60;99.90;;;6.06;90.94;99400.00;5025016;28;20473;-88
2021/12/09 10:23:50;;;;;;;9.20;3.22;;;5.50;99.90;;;5.93;91.18;99392.94;5007748;28;20034;-85
2021/12/09 10:26:33;;;;;;;14.77;3.75;;;5.40;99.90;;;5.98;91.33;99389.09;5023628;28;20064;-83
2021/12/09 10:29:18;;;;;;;12.00;3.00;;;5.40;99.90;;;5.73;92.13;99385.66;5024301;28;20034;-87
2021/12/09 10:31:59;;;;;;;14.40;3.97;;;5.30;99.90;;;5.78;92.79;99390.94;5006411;28;20033;-87
2021/12/09 10:34:40;;;;;;;11.23;3.40;;;5.20;99.90;;;5.67;92.61;99379.59;5024105;28;20133;-85
2021/12/09 10:37:21;;;;;;;9.50;3.80;;;5.20;99.90;;;5.84;92.18;99382.00;5022706;28;20145;-85
2021/12/09 10:40:08;;;;;;;11.10;3.38;;;5.20;99.90;;;5.92;92.54;99382.22;5021941;28;20422;-86
2021/12/09 10:42:45;;;;;;;11.60;3.58;;;5.30;99.90;;;5.95;92.52;99379.53;5006171;28;20022;-85
2021/12/09 10:45:28;;;;;;;11.90;4.00;;;5.30;99.90;;;5.86;91.85;99375.34;5026746;28;20018;-86